createdAt,value
2017-07-27T00:02:09.610Z,15.65
2017-07-27T00:04:44.903Z,16.85
2017-07-27T00:07:12.473Z,16.37
2017-07-27T00:09:40.042Z,14.50
2017-07-27T00:12:08.319Z,13.45
2017-07-27T00:14:36.116Z,14.32
2017-07-27T00:17:03.916Z,15.98
2017-07-27T00:19:35.324Z,16.00
2017-07-27T00:22:03.083Z,12.77
2017-07-27T00:24:30.628Z,12.75
2017-07-27T00:26:58.131Z,11.68
2017-07-27T00:29:25.770Z,14.82
2017-07-27T00:31:53.536Z,10.98
2017-07-27T00:34:21.039Z,10.80
2017-07-27T00:36:48.547Z,12.13
2017-07-27T00:39:19.294Z,11.45
2017-07-27T00:41:46.805Z,14.05
2017-07-27T00:44:15.116Z,12.35
2017-07-27T00:46:42.881Z,13.05
2017-07-27T00:49:10.635Z,12.63
2017-07-27T00:51:38.312Z,10.98
2017-07-27T00:54:05.848Z,12.80
2017-07-27T00:56:33.346Z,14.50
2017-07-27T00:59:00.984Z,14.00
2017-07-27T01:01:28.492Z,12.98
2017-07-27T01:03:56.005Z,13.23
2017-07-27T01:06:23.712Z,14.70
2017-07-27T01:08:51.523Z,13.32
2017-07-27T01:11:19.074Z,13.70
2017-07-27T01:13:46.625Z,14.13
2017-07-27T01:16:14.218Z,10.73
2017-07-27T01:18:41.715Z,12.60
2017-07-27T01:21:09.433Z,12.75
2017-07-27T01:23:36.985Z,11.90
2017-07-27T01:26:04.596Z,13.52
2017-07-27T01:28:32.151Z,11.90
2017-07-27T01:30:59.642Z,14.23
2017-07-27T01:33:27.353Z,12.45
2017-07-27T01:35:57.861Z,10.75
2017-07-27T01:38:25.611Z,11.15
2017-07-27T01:40:53.154Z,10.93
2017-07-27T01:43:21.564Z,11.95
2017-07-27T01:45:49.125Z,11.75
2017-07-27T01:48:16.787Z,11.75
2017-07-27T01:50:44.316Z,10.43
2017-07-27T01:53:15.547Z,11.73
2017-07-27T01:55:43.151Z,8.65
2017-07-27T01:58:10.656Z,11.15
2017-07-27T02:00:38.236Z,11.55
2017-07-27T02:03:05.738Z,11.90
2017-07-27T02:05:33.248Z,10.63
2017-07-27T02:08:01.567Z,12.65
2017-07-27T02:10:29.069Z,10.82
2017-07-27T02:12:57.034Z,10.55
2017-07-27T02:15:24.591Z,10.40
2017-07-27T02:17:52.140Z,12.00
2017-07-27T02:20:20.039Z,11.25
2017-07-27T02:22:47.647Z,12.45
2017-07-27T02:25:15.196Z,10.57
2017-07-27T02:27:42.780Z,10.85
2017-07-27T02:30:10.490Z,11.27
2017-07-27T02:32:38.161Z,11.40
2017-07-27T02:35:05.721Z,10.65
2017-07-27T02:37:33.342Z,10.35
2017-07-27T02:40:00.846Z,10.50
2017-07-27T02:42:28.402Z,8.75
2017-07-27T02:44:56.125Z,10.05
2017-07-27T02:47:23.635Z,10.80
2017-07-27T02:49:55.383Z,10.13
2017-07-27T02:52:22.901Z,10.60
2017-07-27T02:54:53.709Z,9.77
2017-07-27T02:57:21.260Z,11.45
2017-07-27T02:59:48.763Z,11.68
2017-07-27T03:02:16.351Z,11.60
2017-07-27T03:04:44.129Z,11.80
2017-07-27T03:07:11.660Z,11.60
2017-07-27T03:09:39.657Z,11.65
2017-07-27T03:12:07.335Z,11.32
2017-07-27T03:14:34.912Z,11.00
2017-07-27T03:17:02.476Z,11.35
2017-07-27T03:19:30.100Z,11.00
2017-07-27T03:21:57.619Z,12.00
2017-07-27T03:24:25.930Z,11.43
2017-07-27T03:26:53.531Z,12.52
2017-07-27T03:29:21.155Z,12.32
2017-07-27T03:31:48.655Z,11.48
2017-07-27T03:34:16.215Z,12.32
2017-07-27T03:36:43.721Z,12.35
2017-07-27T03:39:11.297Z,10.35
2017-07-27T03:41:38.933Z,11.38
2017-07-27T03:44:06.757Z,12.07
2017-07-27T03:46:34.311Z,11.90
2017-07-27T03:49:02.012Z,11.68
2017-07-27T03:51:29.802Z,11.80
2017-07-27T03:54:01.251Z,11.77
2017-07-27T03:56:28.762Z,11.48
2017-07-27T03:58:56.476Z,13.93
2017-07-27T04:01:24.235Z,13.88
2017-07-27T04:03:52.001Z,13.30
2017-07-27T04:06:24.071Z,12.13
2017-07-27T04:08:51.630Z,11.32
2017-07-27T04:11:23.625Z,14.10
2017-07-27T04:13:54.748Z,12.23
2017-07-27T04:16:22.259Z,11.32
2017-07-27T04:18:50.584Z,12.82
2017-07-27T04:21:18.146Z,11.48
2017-07-27T04:23:46.739Z,11.63
2017-07-27T04:26:14.284Z,12.07
2017-07-27T04:28:41.844Z,12.73
2017-07-27T04:31:09.496Z,12.10
2017-07-27T04:33:37.145Z,12.60
2017-07-27T04:36:04.651Z,13.00
2017-07-27T04:38:32.143Z,14.07
2017-07-27T04:41:00.434Z,14.70
2017-07-27T04:43:28.212Z,13.52
2017-07-27T04:45:55.783Z,14.90
2017-07-27T04:48:23.310Z,14.63
2017-07-27T04:50:51.131Z,15.50
2017-07-27T04:53:26.330Z,15.63
2017-07-27T04:55:58.812Z,17.35
2017-07-27T04:58:26.379Z,16.42
2017-07-27T05:00:53.915Z,15.80
2017-07-27T05:03:21.473Z,15.85
2017-07-27T05:05:49.343Z,15.07
2017-07-27T05:08:16.849Z,14.15
2017-07-27T05:10:48.392Z,12.70
2017-07-27T05:13:15.916Z,13.90
2017-07-27T05:15:43.688Z,12.48
2017-07-27T05:18:11.220Z,13.40
2017-07-27T05:20:38.739Z,12.57
2017-07-27T05:23:10.661Z,12.60
2017-07-27T05:25:38.225Z,13.38
2017-07-27T05:28:05.728Z,10.82
2017-07-27T05:30:33.476Z,11.60
2017-07-27T05:33:01.219Z,12.95
2017-07-27T05:35:28.780Z,10.93
2017-07-27T05:37:56.495Z,11.25
2017-07-27T05:40:24.067Z,12.68
2017-07-27T05:42:51.566Z,11.05
2017-07-27T05:45:19.107Z,12.60
2017-07-27T05:47:46.683Z,12.18
2017-07-27T05:50:14.198Z,12.57
2017-07-27T05:52:42.523Z,13.38
2017-07-27T05:55:10.266Z,12.10
2017-07-27T05:57:46.507Z,11.60
2017-07-27T06:00:14.166Z,11.50
2017-07-27T06:02:41.668Z,10.40
2017-07-27T06:05:09.234Z,11.65
2017-07-27T06:07:36.739Z,10.70
2017-07-27T06:10:07.603Z,10.38
2017-07-27T06:12:35.468Z,9.32
2017-07-27T06:15:02.976Z,8.93
2017-07-27T06:17:30.484Z,9.00
2017-07-27T06:19:58.999Z,12.30
2017-07-27T06:22:26.529Z,9.18
2017-07-27T06:24:54.035Z,8.43
2017-07-27T06:27:26.032Z,7.68
2017-07-27T06:29:53.581Z,9.15
2017-07-27T06:32:21.194Z,8.73
2017-07-27T06:34:48.692Z,8.45
2017-07-27T06:37:16.991Z,8.45
2017-07-27T06:39:49.055Z,8.38
2017-07-27T06:42:19.702Z,8.85
2017-07-27T06:44:47.236Z,9.90
2017-07-27T06:47:14.852Z,10.85
2017-07-27T06:49:42.347Z,8.18
2017-07-27T06:52:10.643Z,9.60
2017-07-27T06:54:41.612Z,8.85
2017-07-27T06:57:16.384Z,8.93
2017-07-27T06:59:45.607Z,9.75
2017-07-27T07:02:13.111Z,8.98
2017-07-27T07:04:40.608Z,9.45
2017-07-27T07:07:08.899Z,9.75
2017-07-27T07:09:40.368Z,9.15
2017-07-27T07:12:15.459Z,9.88
2017-07-27T07:14:43.573Z,9.10
2017-07-27T07:17:11.076Z,10.43
2017-07-27T07:19:38.718Z,9.13
2017-07-27T07:22:06.264Z,8.90
2017-07-27T07:24:36.776Z,10.10
2017-07-27T07:27:08.239Z,10.10
2017-07-27T07:29:35.755Z,10.13
2017-07-27T07:32:06.557Z,11.12
2017-07-27T07:34:34.068Z,9.25
2017-07-27T07:37:01.571Z,7.95
2017-07-27T07:39:29.191Z,8.10
2017-07-27T07:41:59.721Z,8.65
2017-07-27T07:44:27.243Z,8.75
2017-07-27T07:46:55.566Z,8.48
2017-07-27T07:49:23.251Z,9.55
2017-07-27T07:51:51.079Z,8.27
2017-07-27T07:54:18.823Z,7.93
2017-07-27T07:56:46.332Z,8.70
2017-07-27T07:59:13.823Z,8.00
2017-07-27T08:01:41.522Z,7.30
2017-07-27T08:04:09.058Z,8.13
2017-07-27T08:06:37.347Z,8.18
2017-07-27T08:09:16.939Z,6.95
2017-07-27T08:11:51.547Z,8.80
2017-07-27T08:14:22.496Z,8.13
2017-07-27T08:16:50.000Z,7.53
2017-07-27T08:19:25.979Z,7.45
2017-07-27T08:21:53.499Z,8.48
2017-07-27T08:24:21.020Z,6.22
2017-07-27T08:26:51.655Z,6.45
2017-07-27T08:29:19.160Z,5.32
2017-07-27T08:31:46.740Z,5.40
2017-07-27T08:34:14.347Z,4.75
2017-07-27T08:36:41.846Z,4.35
2017-07-27T08:39:09.412Z,4.60
2017-07-27T08:41:37.360Z,5.15
2017-07-27T08:44:05.154Z,3.95
2017-07-27T08:46:39.892Z,4.50
2017-07-27T08:49:07.691Z,6.37
2017-07-27T08:51:36.131Z,5.12
2017-07-27T08:54:03.906Z,4.35
2017-07-27T08:56:31.465Z,4.50
2017-07-27T08:58:59.011Z,4.30
2017-07-27T09:01:26.569Z,4.43
2017-07-27T09:03:54.815Z,3.78
2017-07-27T09:06:22.351Z,3.75
2017-07-27T09:08:49.891Z,3.47
2017-07-27T09:11:17.413Z,3.70
2017-07-27T09:13:45.796Z,3.10
2017-07-27T09:16:13.351Z,3.67
2017-07-27T09:18:40.908Z,3.45
2017-07-27T09:21:08.423Z,3.40
2017-07-27T09:23:35.979Z,4.62
2017-07-27T09:26:03.639Z,4.15
2017-07-27T09:28:31.185Z,3.67
2017-07-27T09:30:58.727Z,3.12
2017-07-27T09:33:26.275Z,3.37
2017-07-27T09:35:54.133Z,3.15
2017-07-27T09:38:21.635Z,2.80
2017-07-27T09:40:49.380Z,4.07
2017-07-27T09:43:28.210Z,3.97
2017-07-27T09:45:56.011Z,2.75
2017-07-27T09:48:23.533Z,3.00
2017-07-27T09:50:51.375Z,2.95
2017-07-27T09:53:18.901Z,3.03
2017-07-27T09:55:47.184Z,5.15
2017-07-27T09:58:18.368Z,3.30
2017-07-27T10:00:45.886Z,3.00
2017-07-27T10:03:14.163Z,3.47
2017-07-27T10:05:41.704Z,3.85
2017-07-27T10:08:09.239Z,3.80
2017-07-27T10:10:36.869Z,2.90
2017-07-27T10:13:04.372Z,3.00
2017-07-27T10:15:35.863Z,3.10
2017-07-27T10:18:03.365Z,2.87
2017-07-27T10:20:30.904Z,2.83
2017-07-27T10:22:58.511Z,3.00
2017-07-27T10:25:26.015Z,3.95
2017-07-27T10:27:53.595Z,3.05
2017-07-27T10:30:33.128Z,3.10
2017-07-27T10:33:08.131Z,3.22
2017-07-27T10:35:35.728Z,2.90
2017-07-27T10:38:03.517Z,2.85
2017-07-27T10:40:31.044Z,2.30
2017-07-27T10:43:02.781Z,2.30
2017-07-27T10:45:34.454Z,3.40
2017-07-27T10:48:02.275Z,2.70
2017-07-27T10:50:30.584Z,1.67
2017-07-27T10:52:58.203Z,2.10
2017-07-27T10:55:25.748Z,1.83
2017-07-27T10:57:56.336Z,2.87
2017-07-27T11:00:23.852Z,1.67
2017-07-27T11:02:51.427Z,1.65
2017-07-27T11:05:19.280Z,2.25
2017-07-27T11:07:46.782Z,2.70
2017-07-27T11:10:14.474Z,1.50
2017-07-27T11:12:42.902Z,2.83
2017-07-27T11:15:10.407Z,1.80
2017-07-27T11:17:42.800Z,2.20
2017-07-27T11:20:13.315Z,2.03
2017-07-27T11:22:41.031Z,1.73
2017-07-27T11:25:08.527Z,1.70
2017-07-27T11:27:36.087Z,2.05
2017-07-27T11:30:03.821Z,2.25
2017-07-27T11:32:31.343Z,1.58
2017-07-27T11:34:59.216Z,1.30
2017-07-27T11:37:26.792Z,1.02
2017-07-27T11:39:54.339Z,1.40
2017-07-27T11:42:22.048Z,1.45
2017-07-27T11:44:49.593Z,1.52
2017-07-27T11:47:17.096Z,1.20
2017-07-27T11:49:55.372Z,1.42
2017-07-27T11:52:22.975Z,2.00
2017-07-27T11:54:54.896Z,2.30
2017-07-27T11:57:22.404Z,1.10
2017-07-27T11:59:55.015Z,1.60
2017-07-27T12:02:22.527Z,1.50
2017-07-27T12:04:50.120Z,1.00
2017-07-27T12:07:17.680Z,1.73
2017-07-27T12:09:45.180Z,2.53
2017-07-27T12:12:12.856Z,1.00
2017-07-27T12:14:43.766Z,1.10
2017-07-27T12:17:11.264Z,1.40
2017-07-27T12:22:23.930Z,1.60
2017-07-27T12:24:51.462Z,1.43
2017-07-27T12:27:19.823Z,1.80
2017-07-27T12:29:47.553Z,1.57
2017-07-27T12:32:15.051Z,1.43
2017-07-27T12:34:43.058Z,1.17
2017-07-27T12:37:10.584Z,1.30
2017-07-27T12:39:38.881Z,3.03
2017-07-27T12:42:06.951Z,4.83
2017-07-27T12:44:34.447Z,1.57
2017-07-27T12:47:02.004Z,1.40
2017-07-27T12:49:40.086Z,1.63
2017-07-27T12:52:08.160Z,1.42
2017-07-27T12:54:35.843Z,1.95
2017-07-27T12:57:03.424Z,1.70
2017-07-27T12:59:30.932Z,1.30
2017-07-27T13:01:58.440Z,1.73
2017-07-27T13:04:26.189Z,1.33
2017-07-27T13:06:53.703Z,1.77
2017-07-27T13:09:21.231Z,1.70
2017-07-27T13:11:48.808Z,1.60
2017-07-27T13:14:17.095Z,3.60
2017-07-27T13:16:44.611Z,2.30
2017-07-27T13:19:15.110Z,2.37
2017-07-27T13:21:42.627Z,2.30
2017-07-27T13:24:10.947Z,2.55
2017-07-27T13:26:38.535Z,2.37
2017-07-27T13:29:07.088Z,2.78
2017-07-27T13:31:34.633Z,3.00
2017-07-27T13:34:06.624Z,4.72
2017-07-27T13:36:34.127Z,4.30
2017-07-27T13:39:01.638Z,4.87
2017-07-27T13:41:29.201Z,4.32
2017-07-27T13:43:56.760Z,4.40
2017-07-27T13:46:28.544Z,6.30
2017-07-27T13:48:56.283Z,7.53
2017-07-27T13:51:30.479Z,4.07
2017-07-27T13:53:58.065Z,3.97
2017-07-27T13:56:25.713Z,5.43
2017-07-27T13:58:53.423Z,3.37
2017-07-27T14:01:20.923Z,4.70
2017-07-27T14:03:48.612Z,3.80
2017-07-27T14:06:16.156Z,3.63
2017-07-27T14:08:43.720Z,4.90
2017-07-27T14:11:11.383Z,4.97
2017-07-27T14:13:38.907Z,5.43
2017-07-27T14:16:07.392Z,5.30
2017-07-27T14:18:37.835Z,5.68
2017-07-27T14:21:05.488Z,4.60
2017-07-27T14:23:33.279Z,4.30
2017-07-27T14:26:00.795Z,5.57
2017-07-27T14:28:29.083Z,5.83
2017-07-27T14:30:56.610Z,5.20
2017-07-27T14:33:28.812Z,5.85
2017-07-27T14:36:00.100Z,6.12
2017-07-27T14:38:27.653Z,5.97
2017-07-27T14:40:55.163Z,7.97
2017-07-27T14:43:22.761Z,5.77
2017-07-27T14:45:50.320Z,4.87
2017-07-27T14:48:17.923Z,5.50
2017-07-27T14:50:45.766Z,5.17
2017-07-27T14:53:13.300Z,6.20
2017-07-27T14:55:40.830Z,6.30
2017-07-27T14:58:08.947Z,5.20
2017-07-27T15:00:36.828Z,5.63
2017-07-27T15:03:07.335Z,4.80
2017-07-27T15:05:34.887Z,4.97
2017-07-27T15:08:02.449Z,3.90
2017-07-27T15:10:30.279Z,4.57
2017-07-27T15:12:58.077Z,4.83
2017-07-27T15:15:25.588Z,4.20
2017-07-27T15:17:53.141Z,4.33
2017-07-27T15:20:24.607Z,4.67
2017-07-27T15:22:52.312Z,4.20
2017-07-27T15:25:20.003Z,4.40
2017-07-27T15:27:48.001Z,3.20
2017-07-27T15:30:15.820Z,3.80
2017-07-27T15:32:47.559Z,4.20
2017-07-27T15:35:22.396Z,4.03
2017-07-27T15:37:49.896Z,5.10
2017-07-27T15:40:17.479Z,4.10
2017-07-27T15:42:44.981Z,4.60
2017-07-27T15:45:12.634Z,3.30
2017-07-27T15:47:43.380Z,3.60
2017-07-27T15:50:11.860Z,3.70
2017-07-27T15:52:39.617Z,4.40
2017-07-27T15:55:07.183Z,8.20
2017-07-27T15:57:34.714Z,3.90
2017-07-27T16:00:02.479Z,2.80
2017-07-27T16:02:30.262Z,4.30
2017-07-27T16:05:01.507Z,3.37
2017-07-27T16:07:29.168Z,3.57
2017-07-27T16:09:56.727Z,2.90
2017-07-27T16:12:24.235Z,3.60
2017-07-27T16:14:51.740Z,3.17
2017-07-27T16:17:19.280Z,3.30
2017-07-27T16:19:46.811Z,3.43
2017-07-27T16:22:19.425Z,3.60
2017-07-27T16:24:47.100Z,4.10
2017-07-27T16:27:14.659Z,3.33
2017-07-27T16:29:42.252Z,4.07
2017-07-27T16:32:09.792Z,3.10
2017-07-27T16:34:37.287Z,4.27
2017-07-27T16:37:05.124Z,4.30
2017-07-27T16:39:32.627Z,4.00
2017-07-27T16:42:00.199Z,3.90
2017-07-27T16:44:27.724Z,3.50
2017-07-27T16:46:55.219Z,4.23
2017-07-27T16:49:22.786Z,4.17
2017-07-27T16:51:50.335Z,3.50
2017-07-27T16:54:17.940Z,3.07
2017-07-27T16:56:45.487Z,4.37
2017-07-27T16:59:13.111Z,2.37
2017-07-27T17:01:40.664Z,3.30
2017-07-27T17:04:08.990Z,2.87
2017-07-27T17:06:36.519Z,3.00
2017-07-27T17:09:04.031Z,2.93
2017-07-27T17:11:31.649Z,2.73
2017-07-27T17:13:59.435Z,3.00
2017-07-27T17:16:26.978Z,2.00
2017-07-27T17:18:54.549Z,3.10
2017-07-27T17:21:22.138Z,2.73
2017-07-27T17:23:49.671Z,1.93
2017-07-27T17:26:17.240Z,2.63
2017-07-27T17:28:44.796Z,2.25
2017-07-27T17:31:12.309Z,3.30
2017-07-27T17:33:39.824Z,2.17
2017-07-27T17:36:11.207Z,2.40
2017-07-27T17:38:39.468Z,2.40
2017-07-27T17:41:07.035Z,2.70
2017-07-27T17:43:34.616Z,2.50
2017-07-27T17:46:02.156Z,2.80
2017-07-27T17:48:29.943Z,2.60
2017-07-27T17:50:57.715Z,2.70
2017-07-27T17:53:33.181Z,2.50
2017-07-27T17:56:04.612Z,2.90
2017-07-27T17:58:33.968Z,3.00
2017-07-27T18:01:02.292Z,3.20
2017-07-27T18:03:29.801Z,2.87
2017-07-27T18:06:08.673Z,2.28
2017-07-27T18:08:36.183Z,2.55
2017-07-27T18:11:10.971Z,2.20
2017-07-27T18:13:38.476Z,3.43
2017-07-27T18:16:05.984Z,2.65
2017-07-27T18:18:33.831Z,2.93
2017-07-27T18:21:01.344Z,2.57
2017-07-27T18:23:28.884Z,2.75
2017-07-27T18:25:56.421Z,2.78
2017-07-27T18:28:24.378Z,3.45
2017-07-27T18:30:51.879Z,3.15
2017-07-27T18:33:19.411Z,3.75
2017-07-27T18:35:46.966Z,3.00
2017-07-27T18:38:17.955Z,3.10
2017-07-27T18:40:45.822Z,4.07
2017-07-27T18:43:13.388Z,3.47
2017-07-27T18:45:41.743Z,4.30
2017-07-27T18:48:09.779Z,5.20
2017-07-27T18:50:37.279Z,4.05
2017-07-27T18:53:04.791Z,3.08
2017-07-27T18:55:36.220Z,3.03
2017-07-27T18:58:04.170Z,3.87
2017-07-27T19:00:31.725Z,3.72
2017-07-27T19:02:59.996Z,4.05
2017-07-27T19:05:27.512Z,3.03
2017-07-27T19:07:55.068Z,3.42
2017-07-27T19:10:22.715Z,4.05
2017-07-27T19:12:50.228Z,3.78
2017-07-27T19:15:17.792Z,4.03
2017-07-27T19:17:45.394Z,5.28
2017-07-27T19:20:13.171Z,4.53
2017-07-27T19:22:40.676Z,4.40
2017-07-27T19:25:13.411Z,5.18
2017-07-27T19:27:40.979Z,3.70
2017-07-27T19:30:08.635Z,4.20
2017-07-27T19:32:36.160Z,4.25
2017-07-27T19:35:03.700Z,4.00
2017-07-27T19:37:31.339Z,3.70
2017-07-27T19:39:58.882Z,4.30
2017-07-27T19:42:26.533Z,4.60
2017-07-27T19:44:54.064Z,3.97
2017-07-27T19:47:21.631Z,3.65
2017-07-27T19:49:49.140Z,4.00
2017-07-27T19:52:21.657Z,4.30
2017-07-27T19:54:49.176Z,4.40
2017-07-27T19:57:16.721Z,4.90
2017-07-27T19:59:44.239Z,4.90
2017-07-27T20:02:11.792Z,4.15
2017-07-27T20:04:39.643Z,4.72
2017-07-27T20:07:10.832Z,4.65
2017-07-27T20:09:38.392Z,4.35
2017-07-27T20:12:05.906Z,3.92
2017-07-27T20:14:33.428Z,4.12
2017-07-27T20:17:01.002Z,4.28
2017-07-27T20:19:28.530Z,4.70
2017-07-27T20:21:56.076Z,4.87
2017-07-27T20:24:26.712Z,4.12
2017-07-27T20:26:54.227Z,4.45
2017-07-27T20:29:21.980Z,3.92
2017-07-27T20:31:50.629Z,4.60
2017-07-27T20:34:18.181Z,4.22
2017-07-27T20:36:45.683Z,4.60
2017-07-27T20:39:18.199Z,5.00
2017-07-27T20:41:45.758Z,4.80
2017-07-27T20:44:13.300Z,5.15
2017-07-27T20:46:41.761Z,5.15
2017-07-27T20:49:09.312Z,4.00
2017-07-27T20:51:36.844Z,5.72
2017-07-27T20:54:04.345Z,5.18
2017-07-27T20:56:35.620Z,5.45
2017-07-27T20:59:03.140Z,4.97
2017-07-27T21:01:30.702Z,5.40
2017-07-27T21:03:58.212Z,4.65
2017-07-27T21:06:26.112Z,5.30
2017-07-27T21:08:56.685Z,5.60
2017-07-27T21:11:24.193Z,3.90
2017-07-27T21:13:58.919Z,4.00
2017-07-27T21:16:27.277Z,5.00
2017-07-27T21:18:54.830Z,4.72
2017-07-27T21:21:22.334Z,4.50
2017-07-27T21:23:49.851Z,4.60
2017-07-27T21:26:20.781Z,4.37
2017-07-27T21:28:48.291Z,4.45
2017-07-27T21:31:15.878Z,4.68
2017-07-27T21:33:43.428Z,4.50
2017-07-27T21:36:10.935Z,5.90
2017-07-27T21:38:41.756Z,4.93
2017-07-27T21:41:09.517Z,4.78
2017-07-27T21:43:37.304Z,6.93
2017-07-27T21:46:04.865Z,6.00
2017-07-27T21:48:32.370Z,5.15
2017-07-27T21:50:59.895Z,6.20
2017-07-27T21:53:27.711Z,7.00
2017-07-27T21:55:55.219Z,5.72
2017-07-27T21:58:22.715Z,4.65
2017-07-27T22:00:50.264Z,5.15
2017-07-27T22:03:17.790Z,3.75
2017-07-27T22:05:45.291Z,4.68
2017-07-27T22:08:13.113Z,4.97
2017-07-27T22:10:40.623Z,3.95
2017-07-27T22:13:12.283Z,3.67
2017-07-27T22:15:39.783Z,3.30
2017-07-27T22:18:07.323Z,4.00
2017-07-27T22:20:35.563Z,4.78
2017-07-27T22:23:03.076Z,4.45
2017-07-27T22:25:33.592Z,4.68
2017-07-27T22:28:01.335Z,5.40
2017-07-27T22:30:29.023Z,3.80
2017-07-27T22:32:56.576Z,4.30
2017-07-27T22:35:24.087Z,4.30
2017-07-27T22:37:51.613Z,4.55
2017-07-27T22:40:22.307Z,4.40
2017-07-27T22:42:49.804Z,4.07
2017-07-27T22:45:17.361Z,4.82
2017-07-27T22:47:44.887Z,4.75
2017-07-27T22:50:12.424Z,6.43
2017-07-27T22:52:40.140Z,6.32
2017-07-27T22:55:07.643Z,6.00
2017-07-27T22:57:39.127Z,5.45
2017-07-27T23:00:06.628Z,5.32
2017-07-27T23:02:35.265Z,5.95
2017-07-27T23:05:03.912Z,6.50
2017-07-27T23:07:31.703Z,7.45
2017-07-27T23:09:59.270Z,7.78
2017-07-27T23:12:26.872Z,6.70
2017-07-27T23:14:57.604Z,5.22
2017-07-27T23:17:25.169Z,6.85
2017-07-27T23:19:56.978Z,6.35
2017-07-27T23:22:24.525Z,5.30
2017-07-27T23:24:52.261Z,6.15
2017-07-27T23:27:20.523Z,5.53
2017-07-27T23:29:52.033Z,6.15
2017-07-27T23:32:19.599Z,6.43
2017-07-27T23:34:47.099Z,5.75
2017-07-27T23:37:14.608Z,5.80
2017-07-27T23:39:42.222Z,5.57
2017-07-27T23:42:22.236Z,6.32
2017-07-27T23:44:52.749Z,6.03
2017-07-27T23:47:20.248Z,6.03
2017-07-27T23:49:47.752Z,6.03
2017-07-27T23:52:15.416Z,5.82
2017-07-27T23:54:42.919Z,5.75
2017-07-27T23:57:14.638Z,5.15
2017-07-27T23:59:42.424Z,5.03
